createdAt,value
2019-05-01T00:02:25.502Z,97949.65
2019-05-01T00:05:14.120Z,97953.35
2019-05-01T00:07:42.780Z,97952.08
2019-05-01T00:10:11.489Z,97946.03
2019-05-01T00:12:40.486Z,97945.95
2019-05-01T00:15:10.103Z,97934.09
2019-05-01T00:17:38.810Z,97939.91
2019-05-01T00:20:07.450Z,97931.30
2019-05-01T00:22:36.105Z,97932.89
2019-05-01T00:25:04.903Z,97931.78
2019-05-01T00:27:33.603Z,97926.53
2019-05-01T00:30:02.259Z,97927.81
2019-05-01T00:32:31.359Z,97935.72
2019-05-01T00:35:00.090Z,97930.71
2019-05-01T00:37:28.729Z,97938.83
2019-05-01T00:39:57.371Z,97938.98
2019-05-01T00:42:26.899Z,97932.95
2019-05-01T00:44:55.626Z,97929.37
2019-05-01T00:47:25.236Z,97923.23
2019-05-01T00:49:53.870Z,97921.72
2019-05-01T00:52:22.594Z,97920.70
2019-05-01T00:54:52.938Z,97925.30
2019-05-01T00:57:49.762Z,97920.84
2019-05-01T01:01:02.054Z,97922.91
2019-05-01T01:03:30.771Z,97921.95
2019-05-01T01:05:59.419Z,97925.41
2019-05-01T01:08:28.066Z,97920.87
2019-05-01T01:10:57.028Z,97921.59
2019-05-01T01:13:25.728Z,97923.81
2019-05-01T01:15:54.373Z,97916.28
2019-05-01T01:18:23.179Z,97919.14
2019-05-01T01:20:51.824Z,97919.77
2019-05-01T01:23:20.880Z,97921.52
2019-05-01T01:25:49.524Z,97921.66
2019-05-01T01:28:18.623Z,97913.16
2019-05-01T01:30:56.136Z,97914.53
2019-05-01T01:33:17.693Z,97914.52
2019-05-01T01:35:46.683Z,97924.09
2019-05-01T01:38:15.319Z,97914.70
2019-05-01T01:40:43.963Z,97920.16
2019-05-01T01:43:30.496Z,97923.95
2019-05-01T01:45:59.955Z,97911.88
2019-05-01T01:48:28.591Z,97909.43
2019-05-01T01:50:57.223Z,97910.78
2019-05-01T01:53:25.875Z,97916.09
2019-05-01T01:55:54.500Z,97918.34
2019-05-01T01:58:23.142Z,97914.25
2019-05-01T02:01:17.264Z,97912.55
2019-05-01T02:03:49.381Z,97918.35
2019-05-01T02:06:18.103Z,97915.05
2019-05-01T02:08:56.398Z,97911.13
2019-05-01T02:11:17.148Z,97913.34
2019-05-01T02:13:45.787Z,97918.07
2019-05-01T02:16:14.490Z,97919.06
2019-05-01T02:18:43.168Z,97926.94
2019-05-01T02:21:11.800Z,97920.56
2019-05-01T02:23:40.448Z,97921.42
2019-05-01T02:26:10.695Z,97916.33
2019-05-01T02:28:57.808Z,97914.06
2019-05-01T02:31:32.825Z,97923.56
2019-05-01T02:34:01.537Z,97914.12
2019-05-01T02:36:30.191Z,97915.25
2019-05-01T02:38:58.921Z,97914.45
2019-05-01T02:41:29.570Z,97914.02
2019-05-01T02:44:00.587Z,97906.53
2019-05-01T02:46:29.512Z,97913.64
2019-05-01T02:49:02.277Z,97914.19
2019-05-01T02:51:30.915Z,97911.55
2019-05-01T02:53:59.558Z,97914.50
2019-05-01T02:56:59.020Z,97917.75
2019-05-01T02:59:28.238Z,97912.11
2019-05-01T03:01:58.184Z,97916.02
2019-05-01T03:04:26.852Z,97920.97
2019-05-01T03:06:55.491Z,97918.33
2019-05-01T03:09:24.143Z,97914.31
2019-05-01T03:11:53.142Z,97913.27
2019-05-01T03:14:21.773Z,97920.02
2019-05-01T03:16:50.493Z,97912.53
2019-05-01T03:19:26.010Z,97916.38
2019-05-01T03:22:03.651Z,97916.13
2019-05-01T03:24:32.303Z,97914.65
2019-05-01T03:27:00.932Z,97911.21
2019-05-01T03:29:29.592Z,97914.56
2019-05-01T03:32:15.404Z,97918.60
2019-05-01T03:34:28.584Z,97917.26
2019-05-01T03:36:57.317Z,97910.96
2019-05-01T03:39:25.959Z,97912.83
2019-05-01T03:41:54.588Z,97917.48
2019-05-01T03:44:23.258Z,97914.42
2019-05-01T03:46:51.879Z,97912.77
2019-05-01T03:49:20.514Z,97912.03
2019-05-01T03:51:49.958Z,97914.53
2019-05-01T03:54:18.659Z,97915.39
2019-05-01T03:56:47.292Z,97914.63
2019-05-01T03:59:15.947Z,97920.48
2019-05-01T04:01:57.426Z,97918.33
2019-05-01T04:04:28.152Z,97921.08
2019-05-01T04:06:56.803Z,97925.19
2019-05-01T04:09:25.442Z,97926.17
2019-05-01T04:11:54.268Z,97928.89
2019-05-01T04:14:22.927Z,97930.05
2019-05-01T04:16:57.017Z,97927.36
2019-05-01T04:19:25.648Z,97931.89
2019-05-01T04:21:59.923Z,97930.48
2019-05-01T04:24:28.678Z,97937.61
2019-05-01T04:26:57.804Z,97929.47
2019-05-01T04:29:35.847Z,97931.30
2019-05-01T04:32:15.870Z,97925.05
2019-05-01T04:35:12.643Z,97934.84
2019-05-01T04:37:41.310Z,97927.98
2019-05-01T04:40:10.298Z,97935.95
2019-05-01T04:42:39.131Z,97943.13
2019-05-01T04:45:07.878Z,97944.23
2019-05-01T04:47:36.684Z,97936.48
2019-05-01T04:50:05.415Z,97942.73
2019-05-01T04:52:34.441Z,97941.00
2019-05-01T04:55:03.140Z,97941.56
2019-05-01T04:57:32.855Z,97943.95
2019-05-01T05:00:01.508Z,97940.39
2019-05-01T05:02:37.871Z,97944.48
2019-05-01T05:05:06.695Z,97949.52
2019-05-01T05:07:35.594Z,97956.13
2019-05-01T05:10:04.419Z,97957.19
2019-05-01T05:13:07.293Z,97952.83
2019-05-01T05:15:45.366Z,97956.47
2019-05-01T05:18:14.182Z,97958.36
2019-05-01T05:20:42.814Z,97950.89
2019-05-01T05:23:11.595Z,97962.25
2019-05-01T05:25:41.422Z,97951.84
2019-05-01T05:28:10.330Z,97954.98
2019-05-01T05:30:38.978Z,97953.31
2019-05-01T05:33:17.756Z,97947.11
2019-05-01T05:35:38.229Z,97952.13
2019-05-01T05:38:26.422Z,97951.58
2019-05-01T05:40:55.074Z,97950.94
2019-05-01T05:43:23.714Z,97950.53
2019-05-01T05:45:52.356Z,97949.84
2019-05-01T05:48:21.010Z,97948.66
2019-05-01T05:50:58.976Z,97945.45
2019-05-01T05:53:28.608Z,97940.86
2019-05-01T05:55:57.852Z,97950.16
2019-05-01T05:58:30.836Z,97948.34
2019-05-01T06:01:21.787Z,97948.98
2019-05-01T06:04:16.427Z,97943.84
2019-05-01T06:07:16.284Z,97946.42
2019-05-01T06:09:54.919Z,97934.78
2019-05-01T06:12:30.790Z,97948.33
2019-05-01T06:15:13.221Z,97947.53
2019-05-01T06:17:46.707Z,97942.58
2019-05-01T06:20:26.093Z,97932.66
2019-05-01T06:23:24.337Z,97935.84
2019-05-01T06:26:00.229Z,97935.02
2019-05-01T06:28:26.323Z,97939.53
2019-05-01T06:30:58.036Z,97936.55
2019-05-01T06:33:26.738Z,97934.89
2019-05-01T06:35:56.448Z,97938.06
2019-05-01T06:38:25.173Z,97940.40
2019-05-01T06:40:58.114Z,97941.61
2019-05-01T06:44:02.222Z,97940.60
2019-05-01T06:46:51.514Z,97934.69
2019-05-01T06:49:51.270Z,97934.25
2019-05-01T06:52:24.888Z,97937.77
2019-05-01T06:54:53.606Z,97930.86
2019-05-01T06:57:22.493Z,97936.26
2019-05-01T06:59:51.212Z,97923.69
2019-05-01T07:02:19.866Z,97924.34
2019-05-01T07:04:48.579Z,97924.55
2019-05-01T07:07:24.974Z,97917.69
2019-05-01T07:09:49.359Z,97922.02
2019-05-01T07:12:24.049Z,97929.16
2019-05-01T07:14:52.192Z,97934.69
2019-05-01T07:17:21.371Z,97926.37
2019-05-01T07:20:21.499Z,97924.12
2019-05-01T07:22:50.218Z,97920.08
2019-05-01T07:25:18.923Z,97917.00
2019-05-01T07:27:47.586Z,97915.80
2019-05-01T07:30:26.016Z,97915.44
2019-05-01T07:32:54.680Z,97907.33
2019-05-01T07:35:23.671Z,97911.84
2019-05-01T07:37:52.330Z,97914.63
2019-05-01T07:40:29.052Z,97911.16
2019-05-01T07:42:55.738Z,97918.30
2019-05-01T07:45:38.898Z,97910.98
2019-05-01T07:48:07.777Z,97915.58
2019-05-01T07:50:36.502Z,97920.81
2019-05-01T07:53:05.151Z,97918.66
2019-05-01T07:55:37.449Z,97916.65
2019-05-01T07:58:10.253Z,97912.44
2019-05-01T08:00:45.935Z,97913.49
2019-05-01T08:03:14.664Z,97911.27
2019-05-01T08:05:45.479Z,97912.13
2019-05-01T08:08:13.765Z,97913.92
2019-05-01T08:10:42.451Z,97913.52
2019-05-01T08:13:11.103Z,97912.75
2019-05-01T08:15:39.905Z,97912.11
2019-05-01T08:18:15.387Z,97914.70
2019-05-01T08:20:50.444Z,97912.70
2019-05-01T08:23:16.999Z,97906.58
2019-05-01T08:25:45.675Z,97906.67
2019-05-01T08:28:20.347Z,97906.70
2019-05-01T08:31:10.967Z,97893.53
2019-05-01T08:33:54.286Z,97901.20
2019-05-01T08:36:22.961Z,97900.73
2019-05-01T08:38:51.889Z,97889.95
2019-05-01T08:41:20.546Z,97887.91
2019-05-01T08:43:54.185Z,97895.34
2019-05-01T08:46:42.174Z,97884.98
2019-05-01T08:49:15.516Z,97893.50
2019-05-01T08:51:44.168Z,97891.17
2019-05-01T08:54:12.896Z,97893.56
2019-05-01T08:56:43.697Z,97893.23
2019-05-01T08:59:12.084Z,97891.63
2019-05-01T09:01:45.857Z,97892.03
2019-05-01T09:04:13.338Z,97895.20
2019-05-01T09:06:43.808Z,97890.13
2019-05-01T09:09:13.976Z,97890.27
2019-05-01T09:11:42.998Z,97889.22
2019-05-01T09:14:11.649Z,97893.42
2019-05-01T09:16:40.341Z,97891.76
2019-05-01T09:19:08.996Z,97884.14
2019-05-01T09:21:39.392Z,97883.39
2019-05-01T09:24:09.384Z,97883.88
2019-05-01T09:26:50.250Z,97874.59
2019-05-01T09:29:22.623Z,97880.59
2019-05-01T09:31:52.395Z,97882.34
2019-05-01T09:34:21.201Z,97874.53
2019-05-01T09:36:49.870Z,97874.41
2019-05-01T09:39:18.783Z,97873.73
2019-05-01T09:41:48.840Z,97871.40
2019-05-01T09:44:17.666Z,97871.91
2019-05-01T09:46:46.308Z,97870.99
2019-05-01T09:49:18.281Z,97865.15
2019-05-01T09:51:52.822Z,97867.87
2019-05-01T09:54:30.614Z,97875.03
2019-05-01T09:56:59.328Z,97872.08
2019-05-01T09:59:27.971Z,97866.59
2019-05-01T10:01:56.638Z,97867.78
2019-05-01T10:04:30.033Z,97864.04
2019-05-01T10:06:55.747Z,97865.84
2019-05-01T10:09:26.759Z,97865.27
2019-05-01T10:11:54.780Z,97860.64
2019-05-01T10:14:23.526Z,97866.36
2019-05-01T10:16:52.449Z,97855.33
2019-05-01T10:19:21.150Z,97858.08
2019-05-01T10:21:49.864Z,97855.12
2019-05-01T10:24:18.859Z,97852.06
2019-05-01T10:26:49.800Z,97855.03
2019-05-01T10:29:40.995Z,97845.55
2019-05-01T10:32:16.903Z,97852.13
2019-05-01T10:35:14.307Z,97848.09
2019-05-01T10:37:40.375Z,97844.82
2019-05-01T10:40:09.079Z,97845.32
2019-05-01T10:42:37.747Z,97845.03
2019-05-01T10:45:06.416Z,97841.08
2019-05-01T10:47:35.164Z,97843.96
2019-05-01T10:50:03.987Z,97847.27
2019-05-01T10:52:32.760Z,97840.12
2019-05-01T10:55:01.515Z,97841.52
2019-05-01T10:57:30.225Z,97839.92
2019-05-01T10:59:58.991Z,97841.45
2019-05-01T11:02:27.632Z,97841.73
2019-05-01T11:04:56.343Z,97841.64
2019-05-01T11:07:25.004Z,97836.61
2019-05-01T11:09:53.652Z,97832.52
2019-05-01T11:12:23.098Z,97829.08
2019-05-01T11:14:51.748Z,97832.58
2019-05-01T11:17:20.525Z,97831.24
2019-05-01T11:19:49.206Z,97827.80
2019-05-01T11:22:17.931Z,97827.63
2019-05-01T11:24:46.893Z,97823.11
2019-05-01T11:27:15.599Z,97826.47
2019-05-01T11:29:44.251Z,97821.03
2019-05-01T11:32:22.800Z,97818.58
2019-05-01T11:35:22.728Z,97829.67
2019-05-01T11:37:56.499Z,97824.94
2019-05-01T11:40:31.511Z,97818.07
2019-05-01T11:43:02.736Z,97815.70
2019-05-01T11:45:32.920Z,97815.26
2019-05-01T11:48:01.560Z,97817.05
2019-05-01T11:50:30.525Z,97813.32
2019-05-01T11:52:59.175Z,97808.04
2019-05-01T11:55:27.818Z,97811.19
2019-05-01T11:57:56.743Z,97806.21
2019-05-01T12:00:25.763Z,97808.58
2019-05-01T12:02:54.493Z,97804.64
2019-05-01T12:05:23.155Z,97810.47
2019-05-01T12:07:51.835Z,97808.70
2019-05-01T12:10:20.481Z,97814.56
2019-05-01T12:12:49.115Z,97813.44
2019-05-01T12:15:17.945Z,97807.75
2019-05-01T12:17:50.230Z,97805.97
2019-05-01T12:20:19.630Z,97809.08
2019-05-01T12:22:51.208Z,97814.70
2019-05-01T12:25:18.710Z,97809.16
2019-05-01T12:27:47.357Z,97809.98
2019-05-01T12:30:16.950Z,97800.91
2019-05-01T12:32:45.684Z,97809.74
2019-05-01T12:35:14.516Z,97811.98
2019-05-01T12:37:43.916Z,97810.09
2019-05-01T12:40:14.360Z,97806.97
2019-05-01T12:42:43.088Z,97805.37
2019-05-01T12:45:13.492Z,97805.50
2019-05-01T12:47:45.798Z,97813.31
2019-05-01T12:50:14.528Z,97803.63
2019-05-01T12:53:00.522Z,97801.62
2019-05-01T12:55:49.392Z,97801.03
2019-05-01T12:58:18.060Z,97798.20
2019-05-01T13:00:49.169Z,97796.09
2019-05-01T13:03:17.899Z,97799.53
2019-05-01T13:05:46.611Z,97795.61
2019-05-01T13:08:15.287Z,97787.84
2019-05-01T13:10:43.927Z,97792.75
2019-05-01T13:13:12.558Z,97789.92
2019-05-01T13:15:41.204Z,97787.15
2019-05-01T13:18:11.606Z,97784.40
2019-05-01T13:20:40.324Z,97779.49
2019-05-01T13:23:08.961Z,97779.98
2019-05-01T13:25:37.665Z,97783.26
2019-05-01T13:28:24.534Z,97778.89
2019-05-01T13:31:00.299Z,97770.30
2019-05-01T13:33:28.938Z,97763.80
2019-05-01T13:35:57.576Z,97769.81
2019-05-01T13:38:26.312Z,97767.12
2019-05-01T13:40:54.942Z,97756.67
2019-05-01T13:43:23.600Z,97755.03
2019-05-01T13:45:52.274Z,97751.39
2019-05-01T13:48:20.910Z,97748.62
2019-05-01T13:50:49.555Z,97754.84
2019-05-01T13:53:18.216Z,97747.20
2019-05-01T13:55:46.867Z,97745.22
2019-05-01T13:58:15.529Z,97746.60
2019-05-01T14:00:44.360Z,97740.21
2019-05-01T14:03:13.011Z,97739.58
2019-05-01T14:05:42.042Z,97737.77
2019-05-01T14:08:10.713Z,97738.66
2019-05-01T14:10:39.415Z,97726.29
2019-05-01T14:13:08.049Z,97736.44
2019-05-01T14:15:36.704Z,97728.81
2019-05-01T14:18:05.416Z,97730.66
2019-05-01T14:20:41.855Z,97721.86
2019-05-01T14:23:21.071Z,97722.17
2019-05-01T14:26:05.348Z,97722.55
2019-05-01T14:28:34.239Z,97722.10
2019-05-01T14:31:02.881Z,97717.79
2019-05-01T14:33:32.825Z,97720.95
2019-05-01T14:36:01.546Z,97703.97
2019-05-01T14:38:31.256Z,97700.01
2019-05-01T14:40:59.998Z,97705.00
2019-05-01T14:43:29.011Z,97707.85
2019-05-01T14:45:57.630Z,97709.19
2019-05-01T14:48:26.614Z,97706.86
2019-05-01T14:50:55.256Z,97703.97
2019-05-01T14:53:23.894Z,97704.95
2019-05-01T14:55:52.549Z,97697.27
2019-05-01T14:58:21.239Z,97701.75
2019-05-01T15:00:49.959Z,97696.92
2019-05-01T15:03:18.895Z,97696.78
2019-05-01T15:05:47.543Z,97686.27
2019-05-01T15:08:16.201Z,97686.78
2019-05-01T15:10:44.928Z,97679.20
2019-05-01T15:13:24.071Z,97676.11
2019-05-01T15:16:00.919Z,97667.97
2019-05-01T15:18:48.629Z,97667.61
2019-05-01T15:21:17.272Z,97671.83
2019-05-01T15:23:53.431Z,97668.09
2019-05-01T15:26:16.234Z,97668.92
2019-05-01T15:28:45.230Z,97672.89
2019-05-01T15:31:14.039Z,97666.34
2019-05-01T15:33:42.680Z,97669.27
2019-05-01T15:36:11.341Z,97666.65
2019-05-01T15:38:40.354Z,97663.20
2019-05-01T15:41:26.878Z,97664.95
2019-05-01T15:44:14.588Z,97662.63
2019-05-01T15:46:43.248Z,97656.95
2019-05-01T15:49:11.868Z,97656.25
2019-05-01T15:51:40.619Z,97653.66
2019-05-01T15:54:09.268Z,97652.09
2019-05-01T15:56:38.957Z,97644.36
2019-05-01T15:59:07.604Z,97647.95
2019-05-01T16:01:36.364Z,97648.19
2019-05-01T16:04:05.977Z,97641.96
2019-05-01T16:06:34.620Z,97642.73
2019-05-01T16:09:04.692Z,97641.00
2019-05-01T16:12:11.318Z,97641.70
2019-05-01T16:14:41.181Z,97644.84
2019-05-01T16:17:09.822Z,97646.17
2019-05-01T16:19:38.463Z,97642.45
2019-05-01T16:22:07.196Z,97641.25
2019-05-01T16:24:35.932Z,97629.14
2019-05-01T16:27:04.940Z,97634.98
2019-05-01T16:29:33.578Z,97631.36
2019-05-01T16:32:02.282Z,97633.86
2019-05-01T16:34:30.957Z,97628.84
2019-05-01T16:36:59.819Z,97625.52
2019-05-01T16:39:50.456Z,97626.16
2019-05-01T16:42:31.616Z,97625.44
2019-05-01T16:45:00.306Z,97629.11
2019-05-01T16:47:28.977Z,97617.46
2019-05-01T16:49:57.704Z,97613.65
2019-05-01T16:52:29.550Z,97615.22
2019-05-01T16:54:59.507Z,97615.37
2019-05-01T16:57:28.768Z,97622.13
2019-05-01T16:59:57.668Z,97619.34
2019-05-01T17:02:46.753Z,97622.37
2019-05-01T17:05:43.939Z,97622.23
2019-05-01T17:08:36.264Z,97620.91
2019-05-01T17:11:00.900Z,97622.77
2019-05-01T17:13:29.693Z,97618.03
2019-05-01T17:15:58.499Z,97617.98
2019-05-01T17:18:27.608Z,97615.27
2019-05-01T17:20:56.243Z,97614.93
2019-05-01T17:23:24.963Z,97616.30
2019-05-01T17:25:53.595Z,97607.97
2019-05-01T17:28:22.323Z,97618.50
2019-05-01T17:31:01.012Z,97615.70
2019-05-01T17:33:29.971Z,97620.06
2019-05-01T17:35:58.603Z,97611.18
2019-05-01T17:38:27.542Z,97614.33
2019-05-01T17:40:56.572Z,97610.14
2019-05-01T17:43:25.284Z,97618.41
2019-05-01T17:45:53.998Z,97614.37
2019-05-01T17:48:22.708Z,97614.83
2019-05-01T17:50:55.053Z,97618.38
2019-05-01T17:53:21.764Z,97614.51
2019-05-01T17:55:50.482Z,97609.38
2019-05-01T17:58:19.142Z,97613.98
2019-05-01T18:01:13.874Z,97611.91
2019-05-01T18:03:58.376Z,97611.06
2019-05-01T18:06:29.677Z,97624.45
2019-05-01T18:09:03.146Z,97622.21
2019-05-01T18:11:28.659Z,97627.47
2019-05-01T18:13:57.383Z,97623.29
2019-05-01T18:16:26.968Z,97625.39
2019-05-01T18:18:55.610Z,97627.62
2019-05-01T18:21:24.344Z,97632.32
2019-05-01T18:24:12.209Z,97625.25
2019-05-01T18:27:14.712Z,97624.86
2019-05-01T18:30:05.232Z,97630.94
2019-05-01T18:32:41.632Z,97632.09
2019-05-01T18:35:14.259Z,97631.67
2019-05-01T18:37:50.223Z,97631.09
2019-05-01T18:40:23.498Z,97627.45
2019-05-01T18:42:52.149Z,97635.75
2019-05-01T18:45:49.043Z,97632.31
2019-05-01T18:48:17.870Z,97639.18
2019-05-01T18:50:49.417Z,97635.58
2019-05-01T18:53:17.022Z,97636.25
2019-05-01T18:55:45.749Z,97633.63
2019-05-01T18:58:14.664Z,97636.82
2019-05-01T19:00:44.019Z,97635.08
2019-05-01T19:03:12.784Z,97634.12
2019-05-01T19:05:43.105Z,97635.19
2019-05-01T19:08:12.247Z,97641.45
2019-05-01T19:10:41.292Z,97639.45
2019-05-01T19:13:10.497Z,97639.19
2019-05-01T19:15:39.513Z,97640.55
2019-05-01T19:18:08.159Z,97643.71
2019-05-01T19:20:36.806Z,97641.77
2019-05-01T19:23:06.068Z,97638.36
2019-05-01T19:25:34.712Z,97640.52
2019-05-01T19:28:04.368Z,97634.87
2019-05-01T19:30:33.312Z,97640.30
2019-05-01T19:33:02.281Z,97634.13
2019-05-01T19:35:34.121Z,97645.18
2019-05-01T19:38:01.310Z,97638.08
2019-05-01T19:40:32.555Z,97638.16
2019-05-01T19:43:00.400Z,97638.66
2019-05-01T19:45:29.135Z,97641.59
2019-05-01T19:47:58.075Z,97640.16
2019-05-01T19:50:27.160Z,97636.28
2019-05-01T19:52:55.917Z,97635.89
2019-05-01T19:55:24.541Z,97634.00
2019-05-01T19:57:55.040Z,97637.52
2019-05-01T20:00:43.455Z,97630.05
2019-05-01T20:03:12.307Z,97631.78
2019-05-01T20:05:41.776Z,97627.61
2019-05-01T20:08:11.169Z,97629.36
2019-05-01T20:10:39.983Z,97632.03
2019-05-01T20:13:12.282Z,97632.00
2019-05-01T20:15:39.066Z,97631.61
2019-05-01T20:18:07.720Z,97632.33
2019-05-01T20:20:36.372Z,97636.99
2019-05-01T20:23:05.091Z,97632.09
2019-05-01T20:25:33.738Z,97628.59
2019-05-01T20:28:02.478Z,97633.31
2019-05-01T20:30:31.151Z,97632.58
2019-05-01T20:33:02.266Z,97627.39
2019-05-01T20:35:30.424Z,97630.63
2019-05-01T20:37:59.163Z,97631.73
2019-05-01T20:40:27.959Z,97631.55
2019-05-01T20:43:01.035Z,97631.16
2019-05-01T20:45:28.059Z,97627.66
2019-05-01T20:47:57.569Z,97630.67
2019-05-01T20:50:26.215Z,97628.08
2019-05-01T20:52:54.947Z,97627.06
2019-05-01T20:55:23.700Z,97628.17
2019-05-01T20:57:54.087Z,97636.52
2019-05-01T21:00:24.831Z,97630.06
2019-05-01T21:02:53.758Z,97625.97
2019-05-01T21:05:33.832Z,97625.75
2019-05-01T21:08:29.055Z,97632.55
2019-05-01T21:11:06.028Z,97629.98
2019-05-01T21:13:34.636Z,97623.63
2019-05-01T21:16:03.953Z,97633.15
2019-05-01T21:18:33.058Z,97634.30
2019-05-01T21:21:03.482Z,97632.27
2019-05-01T21:23:33.444Z,97628.12
2019-05-01T21:26:03.855Z,97628.56
2019-05-01T21:28:34.038Z,97625.84
2019-05-01T21:31:03.821Z,97627.45
2019-05-01T21:33:33.966Z,97627.10
2019-05-01T21:36:04.855Z,97624.85
2019-05-01T21:38:33.341Z,97620.33
2019-05-01T21:41:02.985Z,97628.02
2019-05-01T21:43:33.150Z,97629.61
2019-05-01T21:46:03.882Z,97628.91
2019-05-01T21:48:33.412Z,97615.33
2019-05-01T21:51:06.106Z,97615.72
2019-05-01T21:53:32.957Z,97622.78
2019-05-01T21:56:02.228Z,97627.89
2019-05-01T21:58:35.320Z,97632.20
2019-05-01T22:01:02.775Z,97626.89
2019-05-01T22:03:31.687Z,97623.84
2019-05-01T22:06:00.343Z,97627.81
2019-05-01T22:08:28.992Z,97628.84
2019-05-01T22:11:01.813Z,97619.42
2019-05-01T22:13:28.323Z,97618.30
2019-05-01T22:16:08.106Z,97625.88
2019-05-01T22:18:42.645Z,97625.42
2019-05-01T22:21:46.914Z,97621.83
2019-05-01T22:24:40.698Z,97621.80
2019-05-01T22:27:18.252Z,97614.34
2019-05-01T22:29:52.758Z,97613.78
2019-05-01T22:32:27.738Z,97619.91
2019-05-01T22:35:07.178Z,97613.57
2019-05-01T22:37:35.828Z,97617.61
2019-05-01T22:40:08.077Z,97618.75
2019-05-01T22:42:36.776Z,97619.45
2019-05-01T22:45:05.977Z,97610.63
2019-05-01T22:47:34.635Z,97615.95
2019-05-01T22:50:03.448Z,97611.87
2019-05-01T22:52:32.243Z,97603.25
2019-05-01T22:55:01.287Z,97604.38
2019-05-01T22:57:29.919Z,97602.23
2019-05-01T22:59:58.693Z,97599.41
2019-05-01T23:02:34.351Z,97598.72
2019-05-01T23:05:02.989Z,97598.16
2019-05-01T23:07:31.683Z,97600.53
2019-05-01T23:10:03.202Z,97602.42
2019-05-01T23:12:31.901Z,97597.32
2019-05-01T23:15:00.821Z,97599.23
2019-05-01T23:17:39.522Z,97596.53
2019-05-01T23:20:08.074Z,97593.59
2019-05-01T23:22:36.706Z,97589.62
2019-05-01T23:25:06.584Z,97586.22
2019-05-01T23:27:35.298Z,97594.53
2019-05-01T23:30:04.626Z,97595.16
2019-05-01T23:32:33.607Z,97586.89
2019-05-01T23:35:02.350Z,97586.00
2019-05-01T23:37:30.975Z,97584.08
2019-05-01T23:39:59.684Z,97580.68
2019-05-01T23:42:28.598Z,97574.01
2019-05-01T23:44:57.260Z,97571.97
2019-05-01T23:47:25.888Z,97579.16
2019-05-01T23:49:54.831Z,97564.22
2019-05-01T23:52:23.543Z,97565.69
2019-05-01T23:54:52.183Z,97566.46
2019-05-01T23:57:21.539Z,97559.02
2019-05-01T23:59:50.191Z,97561.63
